Skip to main content

NOAA/GLERL Met Station at Chicago, IL

Previous 5 days (top of hour only)
See also Previous 3 Hours (2 minute increments)
Jump down to Data
Switch to [English][Metric]
Zoom: Click and drag, Pan: shift-click and drag, Unzoom: double-click, Unzoom All




Note: Speed = mean wind during 2-minute period at top of hour,
Gust = max wind during 2-minute period at top of hour,
Peak = max wind during entire hour.
• See also 5-day windrose plot


NOAA/GLERL Met Station at Chicago, IL

Previous 5 days (top of hour only)
See also Previous 3 Hours (2 minute increments)
Jump up to Graphs
Switch to [English][Metric]
                  Wind  Wind  Wind   Air   Dew   Rel
                   Spd   Gst   Dir  Temp    Pt   Hum
YYYY-MM-DD   CST   kts   kts   deg     F     F     %
2021-03-01 00:00 -99.0 -99.0   -99   0.0   0.0   0.0
2021-02-28 13:00  20.6  25.3   238  48.7  48.8 100.3
2021-02-28 12:00  13.4  14.8   222  50.0  50.1 100.3
2021-02-28 11:00  19.6  23.3   221  48.6  48.6 100.2
2021-02-28 10:00  14.8  15.6   192  44.1  44.1 100.2
2021-02-28 09:00   9.3   9.9   166  38.7  38.7 100.2
2021-02-28 08:00  11.1  11.5   167  37.2  37.3 100.2
2021-02-28 07:00   6.2   6.8   125  37.2  37.3 100.2
2021-02-28 06:00  13.6  14.0   129  39.4  39.4 100.2
2021-02-28 05:00   9.3   9.7   107  37.2  37.3 100.2
2021-02-28 04:00  13.2  14.2   112  37.2  37.3 100.2
2021-02-28 03:00  10.9  11.3   105  37.0  37.1 100.2
2021-02-28 02:00   9.7  10.7   122  37.2  37.3 100.2
2021-02-28 01:00   7.0   7.8   112  36.7  36.7 100.2
2021-02-28 00:00   7.4   7.8   129  36.9  36.9 100.2
2021-02-27 23:00   7.4   8.0   127  37.6  37.7 100.3
2021-02-27 22:00  11.5  12.2   136  38.5  38.5 100.2
2021-02-27 21:00  15.9  16.5   137  38.7  38.7 100.3
2021-02-27 20:00  13.2  13.8   133  38.3  38.4 100.3
2021-02-27 19:00  13.4  14.0   142  40.5  39.4  95.8
2021-02-27 18:00  12.2  15.0   151  45.5  41.9  87.0
2021-02-27 17:00  12.6  13.6   154  44.4  39.5  82.8
2021-02-27 16:00  15.7  16.7   159  45.9  38.8  76.2
2021-02-27 15:00  12.4  13.0   168  46.9  37.7  69.9
2021-02-27 14:00  11.3  12.2   168  46.8  37.8  70.6
2021-02-27 13:00   7.6   8.0   184  48.0  37.1  65.6
2021-02-27 12:00   5.6   7.0   207  45.3  37.7  74.5
2021-02-27 11:00   4.1   4.5   184  43.7  37.6  79.0
2021-02-27 10:00   4.5   4.9   260  40.3  37.2  88.5
2021-02-27 09:00   9.7  13.2   200  36.9  36.9 100.2
2021-02-27 08:00  13.8  16.7   202  35.1  35.1 100.2
2021-02-27 07:00  11.9  13.4   161  35.4  35.5 100.2
2021-02-27 06:00   7.6   8.9   176  36.3  36.4 100.2
2021-02-27 05:00   8.4  10.1   251  38.3  37.4  96.5
2021-02-27 04:00  12.4  14.4   251  38.1  37.7  98.5
2021-02-27 03:00   8.2  11.3   239  38.3  37.4  96.6
2021-02-27 02:00   8.9  10.5   219  36.7  36.2  98.3
2021-02-27 01:00   9.5  10.3   186  35.2  35.3 100.2
2021-02-27 00:00  11.5  12.1   179  36.0  34.8  95.4
2021-02-26 23:00   9.3   9.7   141  36.0  33.5  90.7
2021-02-26 22:00  10.3  10.5   132  36.0  32.3  86.3
2021-02-26 21:00   7.0   7.8   131  36.3  31.8  83.6
2021-02-26 20:00   9.1   9.7   117  36.1  31.3  82.5
2021-02-26 19:00   9.3  10.1   126  36.3  30.8  80.3
2021-02-26 18:00  10.7  11.1   147  37.0  29.7  74.6
2021-02-26 17:00  17.3  17.7   131  36.3  29.6  76.2
2021-02-26 16:00  12.2  12.6   116  36.5  30.3  78.1
2021-02-26 15:00  11.5  12.2   118  36.7  28.8  72.7
2021-02-26 14:00  12.1  12.8   124  36.3  27.7  70.7
2021-02-26 13:00  14.2  15.4   133  35.8  27.2  70.7
2021-02-26 12:00  14.0  14.6   133  34.9  26.9  72.3
2021-02-26 11:00  15.7  16.3   139  33.3  27.5  79.1
2021-02-26 10:00   9.3  11.5   161  32.9  28.5  83.5
2021-02-26 09:00  14.0  15.6   167  32.2  26.4  79.0
2021-02-26 08:00  15.2  16.3   180  31.8  26.0  79.0
2021-02-26 07:00  13.8  15.6   177  32.5  30.2  91.0
2021-02-26 06:00   6.2   7.2   164  31.8  30.6  95.3
2021-02-26 05:00   8.9   9.9   165  31.5  29.4  91.8
2021-02-26 04:00   7.6   8.2   177  32.4  28.9  86.8
2021-02-26 03:00   9.9  10.3   190  34.2  27.0  74.7
2021-02-26 02:00  12.8  13.4   202  34.7  26.6  72.0
2021-02-26 01:00  11.9  13.2   197  34.5  27.5  75.4
2021-02-26 00:00  10.7  11.3   201  34.5  27.3  74.6
2021-02-25 23:00  11.5  12.4   189  34.5  27.2  74.2
2021-02-25 22:00  10.9  12.8   197  34.7  28.0  76.4
2021-02-25 21:00  11.1  12.1   205  35.4  27.3  72.1
2021-02-25 20:00   8.2   8.6   246  36.5  26.9  67.8
2021-02-25 19:00  10.1  11.3   249  37.2  26.2  64.1
2021-02-25 18:00  11.7  12.4   267  37.9  25.9  61.6
2021-02-25 17:00   3.7   5.2   166  36.7  27.2  68.2
2021-02-25 16:00   5.2   6.6   152  35.8  30.5  80.8
2021-02-25 15:00   6.2   6.4   133  36.5  27.2  68.6
2021-02-25 14:00   8.4   9.1   315  38.7  20.9  48.5
2021-02-25 13:00   9.3  10.9   300  37.6  23.6  56.7
2021-02-25 12:00   7.8   8.7   358  34.9  25.7  68.9
2021-02-25 11:00  15.0  15.9   319  35.6  23.6  61.4
2021-02-25 10:00  11.3  12.1   281  34.0  26.0  72.3
2021-02-25 09:00  10.9  11.7   280  32.5  26.8  79.0
2021-02-25 08:00   8.4   8.9   257  34.0  27.0  75.2
2021-02-25 07:00   8.0   8.0   262  32.7  27.1  79.4
2021-02-25 06:00   8.4   8.9   269  31.5  28.0  86.9
2021-02-25 05:00   6.0   6.0   268  33.1  28.0  81.5
2021-02-25 04:00   8.6   8.9   275  33.4  27.6  78.8
2021-02-25 03:00   6.8   7.6   285  34.0  28.3  79.3
2021-02-25 02:00   8.9   9.5   298  35.4  28.0  74.0
2021-02-25 01:00  11.1  11.3   308  35.6  29.3  77.7
2021-02-25 00:00   9.1   9.3   282  36.7  30.4  77.8
2021-02-24 23:00   9.7   9.9   301  37.8  30.2  73.8
2021-02-24 22:00   9.7  10.1   292  38.5  31.3  75.2
2021-02-24 21:00   8.0   8.4   271  39.0  32.0  75.6
2021-02-24 20:00   5.2   5.4   300  37.2  32.9  84.3
2021-02-24 19:00   5.4   6.0   306  36.1  33.9  91.4
2021-02-24 18:00   7.0   7.2   332  35.4  34.1  95.0
2021-02-24 17:00  12.2  13.0     1  36.5  33.9  90.2
2021-02-24 16:00  18.9  20.0   337  38.3  34.8  87.2
2021-02-24 15:00  15.9  18.3   337  38.8  34.7  84.9
2021-02-24 14:00  15.4  18.3   311  41.2  33.7  74.5
2021-02-24 13:00  22.7  24.1   310  41.4  33.8  74.1
2021-02-24 12:00  14.8  16.7   303  43.9  34.3  68.8
2021-02-24 11:00  12.1  16.9   289  43.2  35.3  73.4
2021-02-24 10:00  18.5  21.8   279  42.8  35.6  75.5
2021-02-24 09:00  18.7  21.4   266  41.2  36.3  82.5
2021-02-24 08:00  18.5  20.4   261  41.2  37.0  84.9
2021-02-24 07:00  18.9  21.6   254  42.3  37.4  82.8
2021-02-24 06:00  23.9  28.0   247  44.1  38.0  78.9
2021-02-24 05:00  26.4  30.3   229  45.5  38.3  75.7
2021-02-24 04:00  25.3  29.2   221  44.6  37.1  74.7
2021-02-24 03:00  30.1  32.9   204  44.2  36.1  72.8
2021-02-24 02:00  30.1  32.7   202  45.0  35.8  70.0
2021-02-24 01:00  27.2  29.9   194  45.5  35.3  67.2
2021-02-24 00:00  21.2  23.1   184  43.9  35.3  71.5
2021-02-23 23:00  14.6  15.4   180  39.6  36.2  87.5
2021-02-23 22:00  17.3  18.1   169  37.2  36.4  96.9
2021-02-23 21:00   8.4   8.9   165  36.9  35.9  96.2
2021-02-23 20:00  13.2  13.6   169  39.2  34.4  82.6
2021-02-23 19:00  13.2  14.0   190  42.4  33.7  71.0
2021-02-23 18:00  11.7  13.0   193  43.7  33.5  67.0